Time;durP1;ratioP1;P1;durP2;ratioP2;P2;SDS_P1;SDS_P2;PMS_P1;PMS_P2;Temp;Humidity;BMP_temperature;BMP_pressure;BME280_temperature;BME280_humidity;BME280_pressure;Samples;Min_cycle;Max_cycle;Signal;HPM_P1;HPM_P2
2021/12/19 00:01:22;;;;;;;54.60;5.83;;;;;;;7.13;100.00;99397.75;5087580;28;20763;-60
2021/12/19 00:03:57;;;;;;;43.33;4.77;;;;;;;7.23;100.00;99400.81;5089818;28;20667;-60
2021/12/19 00:09:11;;;;;;;32.50;4.63;;;;;;;7.54;100.00;99393.03;5087225;28;20590;-60
2021/12/19 00:11:38;;;;;;;77.90;10.60;;;;;;;7.57;100.00;99389.13;5089344;28;20612;-60
2021/12/19 00:14:05;;;;;;;33.73;4.80;;;;;;;7.57;100.00;99379.31;5089457;28;20594;-60
2021/12/19 00:16:33;;;;;;;64.50;6.10;;;;;;;7.63;100.00;99377.66;5085615;28;20615;-60
2021/12/19 00:18:59;;;;;;;51.60;6.20;;;;;;;7.63;100.00;99371.50;5085914;28;20614;-60
2021/12/19 00:21:28;;;;;;;52.20;6.10;;;;;;;7.72;100.00;99365.78;5088862;28;20578;-61
2021/12/19 00:23:55;;;;;;;56.93;6.47;;;;;;;7.75;100.00;99369.84;5090394;28;20598;-61
2021/12/19 00:26:22;;;;;;;85.23;8.63;;;;;;;7.74;100.00;99357.56;5085571;28;20608;-61
2021/12/19 00:28:50;;;;;;;87.80;8.57;;;;;;;7.79;100.00;99365.75;5085609;28;20602;-61
2021/12/19 00:31:17;;;;;;;78.13;9.03;;;;;;;7.71;100.00;99368.63;5087332;28;20606;-61
2021/12/19 00:33:44;;;;;;;81.50;6.57;;;;;;;7.72;100.00;99364.94;5088738;28;20633;-61
2021/12/19 00:36:12;;;;;;;34.37;5.17;;;;;;;7.76;100.00;99360.84;5087749;28;20609;-61
2021/12/19 00:38:40;;;;;;;126.80;10.30;;;;;;;7.76;100.00;99363.50;5085347;28;20608;-61
2021/12/19 00:41:09;;;;;;;69.47;7.20;;;;;;;7.79;100.00;99344.47;5085863;28;20602;-61
2021/12/19 00:43:43;;;;;;;118.63;10.43;;;;;;;7.83;100.00;99354.47;5088743;28;21133;-60
2021/12/19 00:46:11;;;;;;;77.03;8.37;;;;;;;7.73;100.00;99355.94;5087724;28;20608;-60
2021/12/19 00:48:41;;;;;;;65.00;6.60;;;;;;;7.68;100.00;99350.44;5085044;28;20595;-61
2021/12/19 00:51:10;;;;;;;87.93;7.07;;;;;;;7.78;100.00;99343.66;5085865;28;20606;-61
2021/12/19 00:53:37;;;;;;;64.23;6.60;;;;;;;7.73;100.00;99340.81;5092229;28;20632;-61
2021/12/19 00:56:06;;;;;;;107.00;8.63;;;;;;;7.70;100.00;99345.72;5084897;28;20613;-60
2021/12/19 00:58:33;;;;;;;150.70;12.63;;;;;;;7.37;100.00;99343.97;5084742;28;20676;-60
2021/12/19 01:01:00;;;;;;;59.40;6.27;;;;;;;7.29;100.00;99338.06;5084695;28;20733;-61
2021/12/19 01:03:27;;;;;;;87.23;8.13;;;;;;;7.44;100.00;99335.97;5087326;28;20586;-61
2021/12/19 01:05:54;;;;;;;86.47;7.87;;;;;;;7.46;100.00;99340.06;5087999;28;21179;-61
2021/12/19 01:08:21;;;;;;;74.00;8.27;;;;;;;7.33;100.00;99340.09;5085808;28;20602;-61
2021/12/19 01:10:48;;;;;;;81.17;8.77;;;;;;;7.31;100.00;99325.38;5084522;28;20598;-61
2021/12/19 01:13:17;;;;;;;47.30;6.10;;;;;;;7.32;100.00;99329.66;5090685;28;20617;-61
2021/12/19 01:15:45;;;;;;;89.30;7.97;;;;;;;7.45;100.00;99332.31;5088999;28;20602;-61
2021/12/19 01:18:11;;;;;;;71.77;6.73;;;;;;;7.31;100.00;99325.38;5091203;28;20605;-61
2021/12/19 01:20:40;;;;;;;73.07;7.77;;;;;;;7.31;100.00;99328.84;5089574;28;20637;-61
2021/12/19 01:23:08;;;;;;;82.73;8.20;;;;;;;7.18;100.00;99336.81;5082779;28;20656;-61
2021/12/19 01:25:35;;;;;;;96.37;8.77;;;;;;;7.13;100.00;99341.13;5083471;28;20622;-61
2021/12/19 01:28:01;;;;;;;70.40;7.47;;;;;;;7.33;100.00;99340.09;5088448;28;20609;-61
2021/12/19 01:30:30;;;;;;;71.93;6.97;;;;;;;7.40;100.00;99335.56;5084435;28;20607;-60
2021/12/19 01:32:56;;;;;;;71.70;7.57;;;;;;;7.33;100.00;99337.44;5079957;28;20646;-61
2021/12/19 01:35:24;;;;;;;54.30;6.30;;;;;;;7.35;100.00;99347.84;5092139;28;20593;-61
2021/12/19 01:37:51;;;;;;;52.53;5.73;;;;;;;7.29;100.00;99344.19;5094297;28;20613;-60
2021/12/19 01:40:19;;;;;;;47.90;6.90;;;;;;;7.42;100.00;99330.88;5084816;28;20652;-61
2021/12/19 01:42:51;;;;;;;62.07;5.67;;;;;;;7.36;100.00;99336.22;5086751;28;20602;-61
2021/12/19 01:45:24;;;;;;;96.50;8.10;;;;;;;7.29;100.00;99344.19;5085211;28;20594;-61
2021/12/19 01:47:52;;;;;;;114.73;7.80;;;;;;;7.39;100.00;99330.47;5083991;28;20607;-61
2021/12/19 01:50:19;;;;;;;59.20;5.53;;;;;;;7.31;100.00;99331.50;5086111;28;21208;-61
2021/12/19 01:52:47;;;;;;;72.00;6.23;;;;;;;7.43;100.00;99329.84;5087433;28;20586;-61
2021/12/19 01:55:14;;;;;;;86.80;6.83;;;;;;;7.46;100.00;99336.56;5079178;28;20656;-60
2021/12/19 01:57:40;;;;;;;74.00;6.07;;;;;;;7.34;100.00;99338.25;5087364;28;20628;-60
2021/12/19 02:00:17;;;;;;;65.10;5.17;;;;;;;7.43;100.00;99339.66;5086999;28;20614;-60
2021/12/19 02:02:44;;;;;;;82.03;7.73;;;;;;;7.20;100.00;99345.44;5083913;28;20605;-60
2021/12/19 02:05:12;;;;;;;61.90;6.10;;;;;;;7.20;100.00;99332.16;5084714;28;20644;-60
2021/12/19 02:07:42;;;;;;;116.90;8.93;;;;;;;7.19;100.00;99319.88;5086979;28;20598;-60
2021/12/19 02:10:09;;;;;;;72.77;6.27;;;;;;;7.28;100.00;99326.59;5086405;28;20597;-60
2021/12/19 02:12:38;;;;;;;81.47;6.30;;;;;;;7.23;100.00;99320.28;5083310;28;20594;-60
2021/12/19 02:15:06;;;;;;;71.17;6.70;;;;;;;7.12;100.00;99318.25;5082980;28;20606;-60
2021/12/19 02:17:34;;;;;;;63.63;6.03;;;;;;;7.25;100.00;99319.03;5086786;28;20597;-61
2021/12/19 02:20:01;;;;;;;145.10;10.00;;;;;;;7.21;100.00;99320.47;5086828;28;20610;-61
2021/12/19 02:22:29;;;;;;;42.83;4.87;;;;;;;7.20;100.00;99318.88;5086658;28;20597;-61
2021/12/19 02:24:55;;;;;;;57.33;5.40;;;;;;;7.21;100.00;99314.38;5079631;28;20603;-61
2021/12/19 02:27:28;;;;;;;109.87;8.27;;;;;;;7.30;100.00;99311.28;5085671;28;20598;-61
2021/12/19 02:29:56;;;;;;;50.20;5.43;;;;;;;7.13;100.00;99303.94;5086709;28;20612;-61
2021/12/19 02:32:23;;;;;;;60.23;5.73;;;;;;;7.31;100.00;99312.91;5083747;28;20608;-61
2021/12/19 02:34:52;;;;;;;77.67;5.83;;;;;;;7.27;100.00;99321.50;5083009;28;20660;-61
2021/12/19 02:37:47;;;;;;;85.57;5.87;;;;;;;7.17;100.00;99313.13;5085024;28;20610;-60
2021/12/19 02:40:30;;;;;;;76.20;7.10;;;;;;;7.00;100.00;99313.56;5085849;28;20609;-61
2021/12/19 02:48:23;;;;;;;71.03;6.30;;;;;;;7.25;100.00;99297.78;5085223;28;20607;-60
2021/12/19 02:50:53;;;;;;;103.67;7.50;;;;;;;7.27;100.00;99301.03;5086120;28;20636;-60
2021/12/19 02:53:29;;;;;;;67.57;5.77;;;;;;;7.22;100.00;99300.03;5083888;28;20606;-61
2021/12/19 02:55:57;;;;;;;95.27;6.50;;;;;;;7.23;100.00;99296.38;5081647;28;20613;-61
2021/12/19 02:58:24;;;;;;;106.17;8.23;;;;;;;7.17;100.00;99278.59;5083316;28;20603;-61
2021/12/19 03:00:51;;;;;;;67.57;5.67;;;;;;;7.28;100.00;99272.63;5082655;28;20611;-60
2021/12/19 03:03:17;;;;;;;78.23;5.73;;;;;;;7.37;100.00;99274.84;5084373;28;20636;-60
2021/12/19 03:05:44;;;;;;;93.33;7.30;;;;;;;7.36;100.00;99281.22;5086099;28;20640;-60
2021/12/19 03:08:12;;;;;;;69.10;5.27;;;;;;;7.33;100.00;99276.31;5084908;28;20609;-61
2021/12/19 03:17:56;;;;;;;103.60;7.03;;;;;;;7.43;100.00;99266.03;5047554;28;20612;-61
2021/12/19 03:19:08;;;;;;;86.93;6.67;;;;;;;7.39;100.00;99254.22;5085217;28;20612;-61
2021/12/19 03:21:34;;;;;;;48.80;5.10;;;;;;;7.32;100.00;99248.09;5081332;28;20606;-62
2021/12/19 03:24:01;;;;;;;104.13;6.70;;;;;;;7.36;100.00;99249.31;5082248;28;20628;-61
2021/12/19 03:26:28;;;;;;;100.23;7.50;;;;;;;7.36;100.00;99244.00;5081900;28;20602;-61
2021/12/19 03:28:56;;;;;;;99.03;6.47;;;;;;;7.44;100.00;99235.78;5082337;28;20605;-61
2021/12/19 03:31:22;;;;;;;73.50;5.70;;;;;;;7.43;100.00;99234.16;5084697;28;20594;-60
2021/12/19 03:33:49;;;;;;;85.73;6.03;;;;;;;7.35;100.00;99231.75;5085504;28;20613;-61
2021/12/19 03:36:17;;;;;;;73.77;6.03;;;;;;;7.36;100.00;99232.56;5083937;28;20598;-61
2021/12/19 03:38:44;;;;;;;75.93;5.97;;;;;;;7.20;100.00;99235.66;5082059;28;20633;-61
2021/12/19 03:41:17;;;;;;;97.33;5.60;;;;;;;7.36;100.00;99229.91;5083251;28;20606;-61
2021/12/19 03:43:45;;;;;;;106.43;7.07;;;;;;;7.35;100.00;99230.91;5085491;28;21460;-60
2021/12/19 03:46:13;;;;;;;69.93;5.33;;;;;;;7.34;100.00;99230.09;5084464;28;20601;-60
2021/12/19 03:48:40;;;;;;;109.03;6.83;;;;;;;7.02;100.00;99217.75;5082074;28;20618;-60
2021/12/19 03:51:07;;;;;;;94.43;6.10;;;;;;;7.23;100.00;99227.28;5082337;28;20687;-60
2021/12/19 03:53:34;;;;;;;73.93;5.37;;;;;;;7.28;100.00;99232.78;5089592;28;20611;-61
2021/12/19 03:56:00;;;;;;;64.27;4.40;;;;;;;7.11;100.00;99224.47;5081727;28;20602;-61
2021/12/19 03:58:28;;;;;;;70.27;5.20;;;;;;;7.20;100.00;99220.56;5082098;28;20599;-61
2021/12/19 04:00:58;;;;;;;61.90;3.87;;;;;;;7.28;100.00;99233.59;5081797;28;20611;-61
2021/12/19 04:03:29;;;;;;;81.57;6.00;;;;;;;7.25;100.00;99223.38;5084701;28;20598;-60
2021/12/19 04:05:55;;;;;;;69.10;4.63;;;;;;;7.00;100.00;99225.09;5085249;28;20617;-60
2021/12/19 04:08:22;;;;;;;91.00;5.73;;;;;;;7.07;100.00;99226.72;5082668;28;20613;-60
2021/12/19 04:10:50;;;;;;;133.13;7.30;;;;;;;7.14;100.00;99228.53;5081812;28;20660;-60
2021/12/19 04:13:18;;;;;;;82.20;5.60;;;;;;;7.25;100.00;99223.38;5083442;28;20689;-60
2021/12/19 04:15:45;;;;;;;67.13;4.90;;;;;;;7.18;100.00;99214.63;5085330;28;20602;-60
2021/12/19 04:18:12;;;;;;;71.07;4.73;;;;;;;7.18;100.00;99209.28;5084112;28;20582;-61
2021/12/19 04:20:40;;;;;;;75.10;4.97;;;;;;;7.18;100.00;99203.97;5081613;28;20633;-61
2021/12/19 04:23:07;;;;;;;44.73;3.50;;;;;;;7.19;100.00;99202.97;5090017;28;20628;-60
2021/12/19 04:25:33;;;;;;;64.17;4.80;;;;;;;7.32;100.00;99205.59;5077394;28;20602;-60
2021/12/19 04:28:00;;;;;;;100.10;5.90;;;;;;;7.28;100.00;99191.06;5085059;28;20613;-60
2021/12/19 04:30:27;;;;;;;118.53;6.60;;;;;;;7.25;100.00;99196.00;5081802;28;20602;-61
2021/12/19 04:33:02;;;;;;;75.53;4.60;;;;;;;7.24;100.00;99189.84;5081461;28;20614;-61
2021/12/19 04:35:31;;;;;;;71.23;4.77;;;;;;;7.25;100.00;99190.69;5084922;28;20605;-61
2021/12/19 04:38:40;;;;;;;74.30;5.20;;;;;;;7.24;100.00;99186.41;5087627;28;20701;-60
2021/12/19 04:41:37;;;;;;;51.77;4.30;;;;;;;7.25;100.00;99174.72;5085156;28;20626;-60
2021/12/19 04:52:53;;;;;;;72.43;4.37;;;;;;;7.27;100.00;99157.56;5086705;28;20602;-60
2021/12/19 04:55:42;;;;;;;59.70;4.80;;;;;;;7.28;100.00;99155.72;5086865;28;20610;-60
2021/12/19 04:58:24;;;;;;;51.77;3.03;;;;;;;7.23;100.00;99152.88;5087802;28;20640;-60
2021/12/19 05:01:03;;;;;;;62.57;3.73;;;;;;;7.32;100.00;99151.63;5085015;28;20648;-60
2021/12/19 05:03:41;;;;;;;67.63;4.23;;;;;;;7.29;100.00;99162.66;5084785;28;20622;-60
2021/12/19 05:06:15;;;;;;;50.50;3.23;;;;;;;7.30;100.00;99162.47;5085314;28;20609;-60
2021/12/19 05:14:15;;;;;;;55.87;3.23;;;;;;;7.24;100.00;99157.19;5085755;28;20594;-60
2021/12/19 05:16:42;;;;;;;60.23;3.43;;;;;;;7.23;100.00;99159.03;5088030;28;20620;-61
2021/12/19 05:19:19;;;;;;;107.00;5.60;;;;;;;7.11;100.00;99159.88;5087498;28;20593;-61
2021/12/19 05:21:46;;;;;;;44.53;2.60;;;;;;;7.14;100.00;99154.16;5084652;28;20610;-61
2021/12/19 05:24:21;;;;;;;86.77;4.33;;;;;;;7.16;100.00;99142.28;5084819;28;20606;-61
2021/12/19 05:26:50;;;;;;;51.20;2.97;;;;;;;7.15;100.00;99155.78;5084802;28;20617;-61
2021/12/19 05:29:17;;;;;;;77.87;4.60;;;;;;;7.14;100.00;99165.59;5086439;28;20602;-61
2021/12/19 05:31:45;;;;;;;103.60;5.17;;;;;;;7.15;100.00;99164.56;5087978;28;20612;-61
2021/12/19 05:34:11;;;;;;;73.13;4.00;;;;;;;7.19;100.00;99157.81;5086730;28;20629;-61
2021/12/19 05:47:38;;;;;;;66.47;3.90;;;;;;;7.11;100.00;99141.28;5083902;28;20610;-60
2021/12/19 05:50:05;;;;;;;71.33;3.57;;;;;;;6.96;100.00;99144.22;5084231;28;20621;-60
2021/12/19 05:52:32;;;;;;;75.60;4.10;;;;;;;7.07;100.00;99149.69;5087669;28;20616;-60
2021/12/19 05:54:59;;;;;;;63.10;3.40;;;;;;;7.13;100.00;99137.38;5092400;28;20621;-60
2021/12/19 05:57:27;;;;;;;46.53;3.17;;;;;;;7.12;100.00;99143.72;5086905;28;21132;-60
2021/12/19 05:59:54;;;;;;;43.03;2.43;;;;;;;7.06;100.00;99134.75;5087511;28;20602;-60
2021/12/19 06:02:20;;;;;;;67.47;4.30;;;;;;;7.09;100.00;99128.19;5084955;28;20627;-60
2021/12/19 06:04:47;;;;;;;70.67;3.70;;;;;;;6.94;100.00;99117.03;5083924;28;20611;-60
2021/12/19 06:07:14;;;;;;;114.40;5.93;;;;;;;6.80;100.00;99124.25;5085078;28;20599;-60
2021/12/19 06:09:40;;;;;;;54.13;3.13;;;;;;;6.75;100.00;99124.03;5087245;28;20614;-61
2021/12/19 06:12:08;;;;;;;68.90;3.63;;;;;;;6.82;100.00;99124.03;5086754;28;20597;-60
2021/12/19 06:14:36;;;;;;;49.07;2.93;;;;;;;6.75;100.00;99125.88;5083643;28;20618;-60
2021/12/19 06:17:04;;;;;;;52.53;2.90;;;;;;;6.71;100.00;99122.03;5083845;28;20595;-61
2021/12/19 06:19:36;;;;;;;42.83;2.53;;;;;;;6.64;100.00;99122.03;5083685;28;20611;-61
2021/12/19 06:22:03;;;;;;;72.40;3.97;;;;;;;6.67;100.00;99121.63;5083785;28;20599;-60
2021/12/19 06:24:29;;;;;;;65.07;3.17;;;;;;;6.65;100.00;99118.38;5079299;28;21129;-60
2021/12/19 06:26:56;;;;;;;34.20;2.17;;;;;;;6.58;100.00;99122.88;5083560;28;20595;-60
2021/12/19 06:29:23;;;;;;;70.83;4.13;;;;;;;6.64;100.00;99115.91;5085790;28;20594;-60
2021/12/19 06:31:51;;;;;;;78.50;4.03;;;;;;;6.50;100.00;99115.94;5086662;28;21451;-60
2021/12/19 06:34:18;;;;;;;63.53;3.90;;;;;;;6.61;100.00;99113.66;5084496;28;20793;-60
2021/12/19 06:36:45;;;;;;;68.97;3.60;;;;;;;6.51;100.00;99106.13;5083310;28;20611;-60
2021/12/19 06:39:11;;;;;;;96.20;5.20;;;;;;;6.58;100.00;99108.78;5084177;28;20598;-60
2021/12/19 06:41:38;;;;;;;88.13;4.73;;;;;;;6.47;100.00;99105.72;5086522;28;20601;-60
2021/12/19 06:44:06;;;;;;;55.70;2.80;;;;;;;6.38;100.00;99106.97;5086327;28;20610;-61
2021/12/19 06:46:33;;;;;;;51.33;2.90;;;;;;;6.34;100.00;99108.44;5082977;28;20641;-61
2021/12/19 06:49:01;;;;;;;95.57;4.83;;;;;;;6.40;100.00;99099.63;5082898;28;20594;-60
2021/12/19 06:51:27;;;;;;;99.40;5.80;;;;;;;6.37;100.00;99100.06;5084932;28;20631;-60
2021/12/19 06:53:54;;;;;;;60.43;3.30;;;;;;;6.39;100.00;99100.66;5087742;28;20647;-60
2021/12/19 06:56:20;;;;;;;96.33;5.87;;;;;;;6.40;100.00;99107.59;5081766;28;20605;-60
2021/12/19 06:58:47;;;;;;;74.67;4.33;;;;;;;6.56;100.00;99100.22;5082737;28;20701;-60
2021/12/19 07:01:14;;;;;;;95.23;5.80;;;;;;;6.64;100.00;99107.94;5083584;28;20598;-60
2021/12/19 07:03:40;;;;;;;66.47;3.70;;;;;;;6.67;100.00;99095.06;5086087;28;21416;-60
2021/12/19 07:06:08;;;;;;;83.77;4.43;;;;;;;6.43;100.00;99088.63;5085573;28;20610;-60
2021/12/19 07:08:35;;;;;;;79.17;4.30;;;;;;;6.47;100.00;99081.84;5082554;28;20607;-60
2021/12/19 07:11:02;;;;;;;66.67;3.37;;;;;;;6.44;100.00;99090.22;5082662;28;20602;-60
2021/12/19 07:13:28;;;;;;;68.10;3.93;;;;;;;6.45;100.00;99093.69;5085904;28;21457;-60
2021/12/19 07:15:56;;;;;;;46.17;2.70;;;;;;;6.44;100.00;99095.53;5086068;28;20606;-60
2021/12/19 07:18:23;;;;;;;68.83;3.87;;;;;;;6.49;100.00;99090.44;5083445;28;20606;-60
2021/12/19 07:20:50;;;;;;;61.70;3.23;;;;;;;6.40;100.00;99096.16;5082646;28;20614;-60
2021/12/19 07:23:20;;;;;;;56.13;3.20;;;;;;;6.51;100.00;99092.88;5090803;28;20594;-60
2021/12/19 07:25:46;;;;;;;61.27;3.37;;;;;;;6.53;100.00;99088.16;5080086;28;20632;-61
2021/12/19 07:28:13;;;;;;;74.97;4.43;;;;;;;6.41;100.00;99074.72;5084658;28;20613;-60
2021/12/19 07:30:41;;;;;;;84.17;4.40;;;;;;;6.46;100.00;99090.03;5082368;28;20629;-60
2021/12/19 07:33:10;;;;;;;60.80;3.20;;;;;;;6.48;100.00;99080.84;5082517;28;20638;-60
2021/12/19 07:35:40;;;;;;;76.37;3.80;;;;;;;6.33;100.00;99077.59;5085598;28;20605;-60
2021/12/19 07:38:09;;;;;;;56.70;2.73;;;;;;;6.22;100.00;99074.78;5085333;28;20609;-60
2021/12/19 07:40:39;;;;;;;47.03;2.80;;;;;;;6.28;100.00;99066.00;5082237;28;20609;-60
2021/12/19 07:43:06;;;;;;;52.43;2.73;;;;;;;6.28;100.00;99081.91;5082339;28;20610;-60
2021/12/19 07:45:33;;;;;;;54.60;2.80;;;;;;;6.34;100.00;99084.56;5085529;28;20598;-60
2021/12/19 07:48:00;;;;;;;80.50;4.13;;;;;;;6.25;100.00;99093.72;5085666;28;20652;-60
2021/12/19 07:50:27;;;;;;;71.87;3.50;;;;;;;6.24;100.00;99089.47;5082354;28;20582;-60
2021/12/19 07:52:55;;;;;;;70.70;3.40;;;;;;;6.09;100.00;99080.91;5088970;28;20659;-60
2021/12/19 07:55:22;;;;;;;96.10;4.70;;;;;;;6.00;100.00;99076.84;5077196;28;20602;-60
2021/12/19 07:57:50;;;;;;;54.93;2.50;;;;;;;5.99;100.00;99077.84;5085704;28;20635;-60
2021/12/19 08:00:19;;;;;;;117.20;6.23;;;;;;;6.10;100.00;99077.22;5083850;28;20667;-60
2021/12/19 08:02:46;;;;;;;71.87;3.53;;;;;;;6.04;100.00;99071.91;5081936;28;20614;-60
2021/12/19 08:05:13;;;;;;;78.57;3.77;;;;;;;6.09;100.00;99074.78;5082917;28;20594;-60
2021/12/19 08:07:41;;;;;;;108.27;5.53;;;;;;;6.28;100.00;99073.94;5085338;28;20632;-60
2021/12/19 08:10:15;;;;;;;96.27;4.97;;;;;;;6.38;100.00;99069.81;5084810;28;20637;-60
2021/12/19 08:12:41;;;;;;;78.03;3.80;;;;;;;6.28;100.00;99079.25;5085722;28;20645;-60
2021/12/19 08:15:11;;;;;;;104.20;5.47;;;;;;;6.37;100.00;99078.00;5086241;28;20602;-60
2021/12/19 08:17:38;;;;;;;63.10;3.40;;;;;;;6.31;100.00;99065.56;5089087;28;20619;-60
2021/12/19 08:20:09;;;;;;;155.90;7.27;;;;;;;6.36;100.00;99071.88;5089145;28;20606;-60
2021/12/19 08:22:35;;;;;;;118.27;5.63;;;;;;;6.17;100.00;99062.13;5089559;28;20624;-60
2021/12/19 08:25:02;;;;;;;44.77;2.67;;;;;;;6.23;100.00;99060.47;5079928;28;20628;-60
2021/12/19 08:27:28;;;;;;;62.90;3.73;;;;;;;6.27;100.00;99059.88;5088786;28;20631;-60
2021/12/19 08:29:55;;;;;;;62.63;3.23;;;;;;;6.33;100.00;99056.38;5088929;28;20613;-60
2021/12/19 08:32:23;;;;;;;104.40;5.90;;;;;;;6.37;100.00;99049.66;5086446;28;20616;-60
2021/12/19 08:34:50;;;;;;;73.23;4.20;;;;;;;6.31;100.00;99047.78;5085236;28;20664;-60
2021/12/19 08:37:17;;;;;;;69.67;4.23;;;;;;;6.24;100.00;99052.31;5087009;28;21359;-60
2021/12/19 08:39:44;;;;;;;137.27;7.30;;;;;;;6.22;100.00;99042.94;5088794;28;20608;-60
2021/12/19 08:42:11;;;;;;;49.57;3.13;;;;;;;6.22;100.00;99046.38;5087965;28;20935;-60
2021/12/19 08:44:38;;;;;;;40.13;2.40;;;;;;;6.15;100.00;99039.47;5085400;28;20589;-60
2021/12/19 08:47:06;;;;;;;47.90;2.60;;;;;;;6.01;100.00;99038.66;5085238;28;20606;-60
2021/12/19 08:49:34;;;;;;;46.20;2.97;;;;;;;6.13;100.00;99042.31;5088543;28;20617;-60
2021/12/19 08:52:01;;;;;;;38.43;2.47;;;;;;;6.12;100.00;99032.75;5088769;28;20597;-60
2021/12/19 08:54:28;;;;;;;50.80;3.33;;;;;;;5.99;100.00;99038.06;5081297;28;20613;-60
2021/12/19 08:56:54;;;;;;;52.40;3.10;;;;;;;6.07;100.00;99026.41;5085261;28;20630;-60
2021/12/19 08:59:21;;;;;;;79.93;4.80;;;;;;;6.23;100.00;99026.81;5087088;28;20601;-60
2021/12/19 09:01:48;;;;;;;77.20;4.30;;;;;;;6.23;100.00;99029.47;5088489;28;20839;-60
2021/12/19 09:04:15;;;;;;;51.27;3.17;;;;;;;6.14;100.00;99028.06;5087084;28;20636;-60
2021/12/19 09:06:43;;;;;;;44.20;3.00;;;;;;;6.03;100.00;99020.75;5084977;28;20613;-60
2021/12/19 09:09:11;;;;;;;32.67;2.53;;;;;;;5.93;100.00;99017.69;5085524;28;20672;-60
2021/12/19 09:11:38;;;;;;;49.17;3.40;;;;;;;5.98;100.00;99021.34;5088436;28;20711;-60
2021/12/19 09:14:05;;;;;;;46.00;3.23;;;;;;;5.86;100.00;99016.88;5088499;28;20609;-61
2021/12/19 09:16:31;;;;;;;57.37;3.90;;;;;;;6.00;100.00;99013.19;5084825;28;20609;-60
2021/12/19 09:18:58;;;;;;;62.37;4.30;;;;;;;6.01;100.00;99020.13;5085129;28;20606;-60
2021/12/19 09:21:25;;;;;;;40.90;2.50;;;;;;;5.82;100.00;99015.59;5087586;28;20597;-60
2021/12/19 09:23:53;;;;;;;24.93;2.30;;;;;;;5.87;100.00;99010.56;5089521;28;21220;-60
2021/12/19 09:26:20;;;;;;;49.13;3.40;;;;;;;6.09;100.00;99011.97;5084790;28;20719;-61
2021/12/19 09:28:46;;;;;;;62.07;4.53;;;;;;;6.16;100.00;99023.34;5084582;28;20601;-60
2021/12/19 09:31:13;;;;;;;39.60;3.63;;;;;;;6.07;100.00;99021.94;5085729;28;20607;-60
2021/12/19 09:33:40;;;;;;;63.40;4.40;;;;;;;6.10;100.00;99024.16;5087803;28;21112;-60
2021/12/19 09:36:07;;;;;;;85.63;5.80;;;;;;;6.04;100.00;99022.34;5087926;28;21366;-60
2021/12/19 09:38:35;;;;;;;93.53;5.20;;;;;;;6.07;100.00;99029.91;5084259;28;20644;-60
2021/12/19 09:41:12;;;;;;;66.00;3.90;;;;;;;6.06;100.00;99012.38;5084402;28;20618;-61
2021/12/19 09:43:42;;;;;;;58.23;3.40;;;;;;;6.04;100.00;99014.38;5084344;28;20606;-60
2021/12/19 09:46:12;;;;;;;52.20;3.57;;;;;;;6.04;100.00;98997.66;5084902;28;20602;-60
2021/12/19 09:48:40;;;;;;;53.03;3.47;;;;;;;5.97;100.00;98981.78;5087693;28;20621;-61
2021/12/19 09:51:08;;;;;;;50.17;3.23;;;;;;;6.00;100.00;98981.38;5086323;28;20608;-60
2021/12/19 09:53:35;;;;;;;26.83;2.33;;;;;;;6.02;100.00;98979.31;5084150;28;21477;-60
2021/12/19 09:56:03;;;;;;;57.80;3.67;;;;;;;6.04;100.00;98961.34;5083915;28;20623;-60
2021/12/19 09:58:31;;;;;;;53.90;3.50;;;;;;;5.94;100.00;98963.66;5084124;28;20656;-61
2021/12/19 10:00:58;;;;;;;38.20;2.93;;;;;;;5.86;100.00;98955.91;5083248;28;20614;-60
2021/12/19 10:03:25;;;;;;;88.73;5.13;;;;;;;6.06;100.00;98942.59;5086606;28;21727;-60
2021/12/19 10:05:52;;;;;;;43.37;3.00;;;;;;;6.18;100.00;98941.75;5087286;28;20585;-60
2021/12/19 10:08:24;;;;;;;69.37;5.07;;;;;;;6.19;100.00;98947.88;5085191;28;20601;-61
2021/12/19 10:10:56;;;;;;;46.40;3.10;;;;;;;6.04;100.00;98940.16;5083594;28;20621;-61
2021/12/19 10:13:33;;;;;;;53.43;3.30;;;;;;;6.27;100.00;98929.06;5084837;28;20629;-60
2021/12/19 10:16:00;;;;;;;91.23;5.33;;;;;;;6.28;100.00;98928.84;5087289;28;20600;-60
2021/12/19 10:18:27;;;;;;;56.83;4.70;;;;;;;6.17;100.00;98924.19;5083826;28;20599;-60
2021/12/19 10:20:57;;;;;;;54.37;3.87;;;;;;;5.78;100.00;98913.69;5083582;28;20805;-61
2021/12/19 10:23:26;;;;;;;77.30;4.50;;;;;;;5.90;100.00;98915.53;5091255;28;20601;-61
2021/12/19 10:26:01;;;;;;;45.60;3.27;;;;;;;5.69;100.00;98920.22;5081747;28;20617;-60
2021/12/19 10:28:28;;;;;;;91.13;5.47;;;;;;;5.71;100.00;98905.75;5083551;28;20613;-60
2021/12/19 10:30:58;;;;;;;59.47;3.37;;;;;;;5.98;100.00;98920.59;5083419;28;21153;-60
2021/12/19 10:33:28;;;;;;;56.40;3.50;;;;;;;6.04;100.00;98910.97;5085678;28;20680;-60
2021/12/19 10:35:56;;;;;;;35.10;2.57;;;;;;;5.92;100.00;98902.03;5085836;28;20659;-60
2021/12/19 10:38:25;;;;;;;65.40;4.00;;;;;;;5.79;100.00;98896.75;5084030;28;20598;-60
2021/12/19 10:40:53;;;;;;;73.17;4.13;;;;;;;5.83;100.00;98901.44;5082965;28;20599;-60
2021/12/19 10:43:21;;;;;;;60.97;4.30;;;;;;;6.01;100.00;98894.66;5085235;28;20668;-61
2021/12/19 10:45:50;;;;;;;58.23;3.57;;;;;;;5.96;100.00;98887.34;5086837;28;20593;-60
2021/12/19 10:48:22;;;;;;;68.90;4.67;;;;;;;6.05;100.00;98891.41;5084225;28;20605;-60
2021/12/19 10:50:53;;;;;;;25.63;1.93;;;;;;;6.05;100.00;98880.78;5083388;28;20594;-60
2021/12/19 10:53:25;;;;;;;61.57;3.60;;;;;;;6.10;100.00;98869.53;5091390;28;20593;-60
2021/12/19 10:55:53;;;;;;;58.83;3.70;;;;;;;6.04;100.00;98865.91;5080314;28;20605;-62
2021/12/19 10:58:34;;;;;;;37.97;2.07;;;;;;;6.00;100.00;98859.41;5084413;28;20601;-61
2021/12/19 11:01:10;;;;;;;38.93;2.60;;;;;;;6.10;100.00;98865.06;5083280;28;21177;-60
2021/12/19 11:03:58;;;;;;;65.10;3.97;;;;;;;6.12;100.00;98857.72;5082913;28;20644;-60
2021/12/19 11:06:37;;;;;;;120.47;6.67;;;;;;;6.01;100.00;98860.19;5082516;28;20638;-62
2021/12/19 11:09:15;;;;;;;40.90;3.50;;;;;;;6.03;100.00;98855.50;5085890;28;20713;-58
2021/12/19 11:11:47;;;;;;;57.57;3.63;;;;;;;6.11;100.00;98844.66;5082503;28;20618;-59
2021/12/19 11:14:16;;;;;;;35.10;2.50;;;;;;;6.21;100.00;98837.88;5088212;28;20610;-59
2021/12/19 11:16:43;;;;;;;113.47;6.03;;;;;;;6.09;100.00;98826.31;5081104;28;20602;-59
2021/12/19 11:19:12;;;;;;;79.40;5.50;;;;;;;6.10;100.00;98821.81;5082267;28;20598;-63
2021/12/19 11:21:39;;;;;;;34.57;2.57;;;;;;;5.95;100.00;98835.34;5082588;28;20602;-60
2021/12/19 11:24:07;;;;;;;11.53;1.60;;;;;;;5.82;100.00;98819.44;5085981;28;20610;-59
2021/12/19 11:26:35;;;;;;;40.90;3.07;;;;;;;5.81;100.00;98808.06;5082651;28;20618;-60
2021/12/19 11:29:02;;;;;;;32.47;3.00;;;;;;;6.00;100.00;98811.69;5082617;28;20602;-60
2021/12/19 11:31:31;;;;;;;61.00;4.07;;;;;;;6.03;100.00;98808.59;5089402;28;20618;-59
2021/12/19 11:34:20;;;;;;;41.27;3.20;;;;;;;6.21;100.00;98803.41;5081221;28;20655;-60
2021/12/19 11:36:52;;;;;;;39.63;2.93;;;;;;;6.12;100.00;98817.13;5074149;28;20603;-60
2021/12/19 11:39:19;;;;;;;75.00;5.73;;;;;;;6.22;100.00;98805.00;5072922;28;20599;-60
2021/12/19 11:42:06;;;;;;;38.80;2.50;;;;;;;6.23;100.00;98785.41;5074184;28;20607;-60
2021/12/19 11:44:36;;;;;;;57.77;4.17;;;;;;;6.12;100.00;98782.66;5082424;28;20602;-59
2021/12/19 11:47:07;;;;;;;42.50;3.13;;;;;;;6.20;100.00;98779.72;5082075;28;20640;-60
2021/12/19 11:49:35;;;;;;;81.30;5.07;;;;;;;6.23;100.00;98774.00;5079279;28;20633;-60
2021/12/19 11:52:24;;;;;;;47.93;5.67;;;;;;;6.12;100.00;98756.94;5082240;28;20582;-60
2021/12/19 11:55:19;;;;;;;32.47;2.70;;;;;;;5.99;100.00;98751.72;5078313;28;20606;-60
2021/12/19 11:58:16;;;;;;;58.97;4.10;;;;;;;6.09;100.00;98745.94;5073987;28;20677;-60
2021/12/19 12:00:47;;;;;;;84.70;5.13;;;;;;;6.16;100.00;98758.13;5085694;28;20663;-59
2021/12/19 12:03:40;;;;;;;89.67;5.73;;;;;;;6.31;100.00;98741.91;5084377;28;20613;-59
2021/12/19 12:06:45;;;;;;;67.47;4.40;;;;;;;6.23;100.00;98734.22;5081254;28;20714;-60
2021/12/19 12:09:21;;;;;;;63.67;4.90;;;;;;;6.17;100.00;98732.41;5084485;28;20621;-60
2021/12/19 12:12:34;;;;;;;32.07;3.00;;;;;;;6.13;100.00;98726.72;5081120;28;20617;-60
2021/12/19 12:15:09;;;;;;;36.20;3.53;;;;;;;6.17;100.00;98722.63;5082086;28;20625;-60